CheckWX is a tool to help pilots better visualize weather data.  It is not intended as a substitute for an official pre-flight weather briefing.

06:48:31 UTC

CZCP METAR
Cape Parry Airport
Cape Parry, Canada
Current

49 mins ago

CZCP 230600Z AUTO 08035G42KT ////SM //// OVC005 M11/M12 A2980
Observed
Apr-23 @ 06:00 UTC
Wind
  • 080° at 35 KTS
  • Gusting to 42 KTS
Visibility
Cloud Levels
  • Overcast at 500' AGL
Temperature
-11°C / 12°F
Dewpoint
-12°C / 10°F
Humidity
92%
Altimeter
29.8" Hg
Pressure
1009.12 hPa
Previous

2 hours ago

CZCP 230500Z AUTO 08035KT ////SM //// OVC005 M11/M12 A2979
Observed
Apr-23 @ 05:00 UTC
Wind
  • 080° at 35 KTS
Visibility
Cloud Levels
  • Overcast at 500' AGL
Temperature
-11°C / 12°F
Dewpoint
-12°C / 10°F
Humidity
92%
Altimeter
29.79" Hg
Pressure
1008.82 hPa
Previous

3 hours ago

CZCP 230400Z AUTO 08034G40KT ////SM //// OVC006 M11/M12 A2980
Observed
Apr-23 @ 04:00 UTC
Wind
  • 080° at 34 KTS
  • Gusting to 40 KTS
Visibility
Cloud Levels
  • Overcast at 600' AGL
Temperature
-11°C / 12°F
Dewpoint
-12°C / 10°F
Humidity
92%
Altimeter
29.8" Hg
Pressure
1009.12 hPa